sensor_id;sensor_type;location;lat;lon;timestamp;temperature;humidity
43946;DHT22;29599;51.196;4.428;2022-12-07T00:02:14;5.60;99.90
43946;DHT22;29599;51.196;4.428;2022-12-07T00:04:40;5.60;99.90
43946;DHT22;29599;51.196;4.428;2022-12-07T00:07:05;5.60;99.90
43946;DHT22;29599;51.196;4.428;2022-12-07T00:09:31;5.60;99.90
43946;DHT22;29599;51.196;4.428;2022-12-07T00:11:56;5.60;99.90
43946;DHT22;29599;51.196;4.428;2022-12-07T00:14:22;5.50;99.90
43946;DHT22;29599;51.196;4.428;2022-12-07T00:16:49;5.50;99.90
43946;DHT22;29599;51.196;4.428;2022-12-07T00:19:15;5.50;99.90
43946;DHT22;29599;51.196;4.428;2022-12-07T00:21:40;5.50;99.90
43946;DHT22;29599;51.196;4.428;2022-12-07T00:24:06;5.50;99.90
43946;DHT22;29599;51.196;4.428;2022-12-07T00:26:33;5.50;99.90
43946;DHT22;29599;51.196;4.428;2022-12-07T00:29:00;5.50;99.90
43946;DHT22;29599;51.196;4.428;2022-12-07T00:31:27;5.40;99.90
43946;DHT22;29599;51.196;4.428;2022-12-07T00:33:52;5.40;99.90
43946;DHT22;29599;51.196;4.428;2022-12-07T00:36:19;5.40;99.90
43946;DHT22;29599;51.196;4.428;2022-12-07T00:38:45;5.40;99.90
43946;DHT22;29599;51.196;4.428;2022-12-07T00:41:11;5.40;99.90
43946;DHT22;29599;51.196;4.428;2022-12-07T00:43:37;5.40;99.90
43946;DHT22;29599;51.196;4.428;2022-12-07T00:46:03;5.40;99.90
43946;DHT22;29599;51.196;4.428;2022-12-07T00:48:28;5.30;99.90
43946;DHT22;29599;51.196;4.428;2022-12-07T00:50:54;5.30;99.90
43946;DHT22;29599;51.196;4.428;2022-12-07T00:53:20;5.30;99.90
43946;DHT22;29599;51.196;4.428;2022-12-07T00:55:45;5.30;99.90
43946;DHT22;29599;51.196;4.428;2022-12-07T00:58:11;5.40;99.90
43946;DHT22;29599;51.196;4.428;2022-12-07T01:00:38;5.40;99.90
43946;DHT22;29599;51.196;4.428;2022-12-07T01:03:04;5.50;99.90
43946;DHT22;29599;51.196;4.428;2022-12-07T01:05:29;5.50;99.90
43946;DHT22;29599;51.196;4.428;2022-12-07T01:07:55;5.50;99.90
43946;DHT22;29599;51.196;4.428;2022-12-07T01:10:21;5.60;99.90
43946;DHT22;29599;51.196;4.428;2022-12-07T01:12:46;5.60;99.90
43946;DHT22;29599;51.196;4.428;2022-12-07T01:15:12;5.60;99.90
43946;DHT22;29599;51.196;4.428;2022-12-07T01:17:37;5.60;99.90
43946;DHT22;29599;51.196;4.428;2022-12-07T01:20:03;5.60;99.90
43946;DHT22;29599;51.196;4.428;2022-12-07T01:22:29;5.50;99.90
43946;DHT22;29599;51.196;4.428;2022-12-07T01:24:54;5.50;99.90
43946;DHT22;29599;51.196;4.428;2022-12-07T01:27:20;5.40;99.90
43946;DHT22;29599;51.196;4.428;2022-12-07T01:29:45;5.40;99.90
43946;DHT22;29599;51.196;4.428;2022-12-07T01:32:11;5.40;99.90
43946;DHT22;29599;51.196;4.428;2022-12-07T01:34:37;5.40;99.90
43946;DHT22;29599;51.196;4.428;2022-12-07T01:37:02;5.30;99.90
43946;DHT22;29599;51.196;4.428;2022-12-07T01:39:28;5.30;99.90
43946;DHT22;29599;51.196;4.428;2022-12-07T01:41:54;5.30;99.90
43946;DHT22;29599;51.196;4.428;2022-12-07T01:44:26;5.30;99.90
43946;DHT22;29599;51.196;4.428;2022-12-07T01:46:52;5.20;99.90
43946;DHT22;29599;51.196;4.428;2022-12-07T01:51:52;5.30;99.90
43946;DHT22;29599;51.196;4.428;2022-12-07T01:54:19;5.30;99.90
43946;DHT22;29599;51.196;4.428;2022-12-07T01:56:50;5.30;99.90
43946;DHT22;29599;51.196;4.428;2022-12-07T01:59:17;5.30;99.90
43946;DHT22;29599;51.196;4.428;2022-12-07T02:01:43;5.30;99.90
43946;DHT22;29599;51.196;4.428;2022-12-07T02:04:08;5.30;99.90
43946;DHT22;29599;51.196;4.428;2022-12-07T02:06:34;5.30;99.90
43946;DHT22;29599;51.196;4.428;2022-12-07T02:09:00;5.30;99.90
43946;DHT22;29599;51.196;4.428;2022-12-07T02:11:26;5.20;99.90
43946;DHT22;29599;51.196;4.428;2022-12-07T02:13:51;5.20;99.90
43946;DHT22;29599;51.196;4.428;2022-12-07T02:21:34;5.30;99.90
43946;DHT22;29599;51.196;4.428;2022-12-07T02:31:44;5.40;99.90
43946;DHT22;29599;51.196;4.428;2022-12-07T02:34:14;5.50;99.90
43946;DHT22;29599;51.196;4.428;2022-12-07T02:36:43;5.50;99.90
43946;DHT22;29599;51.196;4.428;2022-12-07T02:39:20;5.50;99.90
43946;DHT22;29599;51.196;4.428;2022-12-07T02:41:58;5.50;99.90
43946;DHT22;29599;51.196;4.428;2022-12-07T02:44:26;5.50;99.90
43946;DHT22;29599;51.196;4.428;2022-12-07T02:47:03;5.50;99.90
43946;DHT22;29599;51.196;4.428;2022-12-07T02:49:30;5.50;99.90
43946;DHT22;29599;51.196;4.428;2022-12-07T02:51:56;5.50;99.90
43946;DHT22;29599;51.196;4.428;2022-12-07T02:54:22;5.50;99.90
43946;DHT22;29599;51.196;4.428;2022-12-07T03:00:15;5.60;99.90
43946;DHT22;29599;51.196;4.428;2022-12-07T03:13:06;5.50;99.90
43946;DHT22;29599;51.196;4.428;2022-12-07T03:15:35;5.60;99.90
43946;DHT22;29599;51.196;4.428;2022-12-07T03:18:05;5.50;99.90
43946;DHT22;29599;51.196;4.428;2022-12-07T03:20:31;5.50;99.90
43946;DHT22;29599;51.196;4.428;2022-12-07T03:22:57;5.50;99.90
43946;DHT22;29599;51.196;4.428;2022-12-07T03:25:24;5.50;99.90
43946;DHT22;29599;51.196;4.428;2022-12-07T03:27:54;5.50;99.90
43946;DHT22;29599;51.196;4.428;2022-12-07T03:30:22;5.50;99.90
43946;DHT22;29599;51.196;4.428;2022-12-07T03:32:50;5.40;99.90
43946;DHT22;29599;51.196;4.428;2022-12-07T03:35:28;5.40;99.90
43946;DHT22;29599;51.196;4.428;2022-12-07T03:38:10;5.30;99.90
43946;DHT22;29599;51.196;4.428;2022-12-07T03:40:41;5.30;99.90
43946;DHT22;29599;51.196;4.428;2022-12-07T03:43:08;5.30;99.90
43946;DHT22;29599;51.196;4.428;2022-12-07T03:45:38;5.30;99.90
43946;DHT22;29599;51.196;4.428;2022-12-07T03:50:49;5.30;99.90
43946;DHT22;29599;51.196;4.428;2022-12-07T03:53:39;5.40;99.90
43946;DHT22;29599;51.196;4.428;2022-12-07T03:56:02;5.30;99.90
43946;DHT22;29599;51.196;4.428;2022-12-07T03:58:28;5.40;99.90
43946;DHT22;29599;51.196;4.428;2022-12-07T04:00:55;5.40;99.90
43946;DHT22;29599;51.196;4.428;2022-12-07T04:03:21;5.40;99.90
43946;DHT22;29599;51.196;4.428;2022-12-07T04:05:46;5.30;99.90
43946;DHT22;29599;51.196;4.428;2022-12-07T04:08:12;5.30;99.90
43946;DHT22;29599;51.196;4.428;2022-12-07T04:10:37;5.30;99.90
43946;DHT22;29599;51.196;4.428;2022-12-07T04:13:04;5.30;99.90
43946;DHT22;29599;51.196;4.428;2022-12-07T04:15:30;5.30;99.90
43946;DHT22;29599;51.196;4.428;2022-12-07T04:17:55;5.30;99.90
43946;DHT22;29599;51.196;4.428;2022-12-07T04:20:21;5.20;99.90
43946;DHT22;29599;51.196;4.428;2022-12-07T04:22:47;5.20;99.90
43946;DHT22;29599;51.196;4.428;2022-12-07T04:25:12;5.20;99.90
43946;DHT22;29599;51.196;4.428;2022-12-07T04:27:37;5.20;99.90
43946;DHT22;29599;51.196;4.428;2022-12-07T04:30:03;5.20;99.90
43946;DHT22;29599;51.196;4.428;2022-12-07T04:32:29;5.30;99.90
43946;DHT22;29599;51.196;4.428;2022-12-07T04:34:54;5.20;99.90
43946;DHT22;29599;51.196;4.428;2022-12-07T04:37:20;5.20;99.90
43946;DHT22;29599;51.196;4.428;2022-12-07T04:39:45;5.20;99.90
43946;DHT22;29599;51.196;4.428;2022-12-07T04:42:11;5.20;99.90
43946;DHT22;29599;51.196;4.428;2022-12-07T04:44:38;5.20;99.90
43946;DHT22;29599;51.196;4.428;2022-12-07T04:47:03;5.30;99.90
43946;DHT22;29599;51.196;4.428;2022-12-07T04:49:29;5.30;99.90
43946;DHT22;29599;51.196;4.428;2022-12-07T04:51:54;5.30;99.90
43946;DHT22;29599;51.196;4.428;2022-12-07T04:54:20;5.30;99.90
43946;DHT22;29599;51.196;4.428;2022-12-07T04:56:45;5.30;99.90
43946;DHT22;29599;51.196;4.428;2022-12-07T04:59:11;5.30;99.90
43946;DHT22;29599;51.196;4.428;2022-12-07T05:01:37;5.30;99.90
43946;DHT22;29599;51.196;4.428;2022-12-07T05:04:02;5.40;99.90
43946;DHT22;29599;51.196;4.428;2022-12-07T05:06:28;5.40;99.90
43946;DHT22;29599;51.196;4.428;2022-12-07T05:08:53;5.40;99.90
43946;DHT22;29599;51.196;4.428;2022-12-07T05:11:19;5.40;99.90
43946;DHT22;29599;51.196;4.428;2022-12-07T05:14:03;5.40;99.90
43946;DHT22;29599;51.196;4.428;2022-12-07T05:16:29;5.40;99.90
43946;DHT22;29599;51.196;4.428;2022-12-07T05:18:55;5.40;99.90
43946;DHT22;29599;51.196;4.428;2022-12-07T05:21:21;5.40;99.90
43946;DHT22;29599;51.196;4.428;2022-12-07T05:23:46;5.40;99.90
43946;DHT22;29599;51.196;4.428;2022-12-07T05:26:12;5.40;99.90
43946;DHT22;29599;51.196;4.428;2022-12-07T05:28:37;5.40;99.90
43946;DHT22;29599;51.196;4.428;2022-12-07T05:31:03;5.40;99.90
43946;DHT22;29599;51.196;4.428;2022-12-07T05:33:29;5.40;99.90
43946;DHT22;29599;51.196;4.428;2022-12-07T05:35:54;5.40;99.90
43946;DHT22;29599;51.196;4.428;2022-12-07T05:38:20;5.50;99.90
43946;DHT22;29599;51.196;4.428;2022-12-07T05:40:45;5.50;99.90
43946;DHT22;29599;51.196;4.428;2022-12-07T05:43:10;5.50;99.90
43946;DHT22;29599;51.196;4.428;2022-12-07T05:45:36;5.50;99.90
43946;DHT22;29599;51.196;4.428;2022-12-07T05:48:02;5.50;99.90
43946;DHT22;29599;51.196;4.428;2022-12-07T05:50:27;5.50;99.90
43946;DHT22;29599;51.196;4.428;2022-12-07T05:52:53;5.50;99.90
43946;DHT22;29599;51.196;4.428;2022-12-07T05:55:19;5.50;99.90
43946;DHT22;29599;51.196;4.428;2022-12-07T05:57:44;5.60;99.90
43946;DHT22;29599;51.196;4.428;2022-12-07T06:00:30;5.60;99.90
43946;DHT22;29599;51.196;4.428;2022-12-07T06:02:55;5.50;99.90
43946;DHT22;29599;51.196;4.428;2022-12-07T06:05:21;5.50;99.90
43946;DHT22;29599;51.196;4.428;2022-12-07T06:07:46;5.50;99.90
43946;DHT22;29599;51.196;4.428;2022-12-07T06:10:12;5.60;99.90
43946;DHT22;29599;51.196;4.428;2022-12-07T06:12:37;5.60;99.90
43946;DHT22;29599;51.196;4.428;2022-12-07T06:15:05;5.60;99.90
43946;DHT22;29599;51.196;4.428;2022-12-07T06:17:30;5.60;99.90
43946;DHT22;29599;51.196;4.428;2022-12-07T06:19:56;5.60;99.90
43946;DHT22;29599;51.196;4.428;2022-12-07T06:22:21;5.60;99.90
43946;DHT22;29599;51.196;4.428;2022-12-07T06:24:47;5.70;99.90
43946;DHT22;29599;51.196;4.428;2022-12-07T06:27:12;5.70;99.90
43946;DHT22;29599;51.196;4.428;2022-12-07T06:29:38;5.70;99.90
43946;DHT22;29599;51.196;4.428;2022-12-07T06:32:04;5.70;99.90
43946;DHT22;29599;51.196;4.428;2022-12-07T06:34:30;5.70;99.90
43946;DHT22;29599;51.196;4.428;2022-12-07T06:36:55;5.70;99.90
43946;DHT22;29599;51.196;4.428;2022-12-07T06:39:22;5.70;99.90
43946;DHT22;29599;51.196;4.428;2022-12-07T06:41:48;5.70;99.90
43946;DHT22;29599;51.196;4.428;2022-12-07T06:44:14;5.70;99.90
43946;DHT22;29599;51.196;4.428;2022-12-07T06:46:39;5.70;99.90
43946;DHT22;29599;51.196;4.428;2022-12-07T06:49:05;5.60;99.90
43946;DHT22;29599;51.196;4.428;2022-12-07T06:51:33;5.60;99.90
43946;DHT22;29599;51.196;4.428;2022-12-07T06:54:04;5.60;99.90
43946;DHT22;29599;51.196;4.428;2022-12-07T06:56:30;5.50;99.90
43946;DHT22;29599;51.196;4.428;2022-12-07T06:58:55;5.50;99.90
43946;DHT22;29599;51.196;4.428;2022-12-07T07:01:21;5.40;99.90
43946;DHT22;29599;51.196;4.428;2022-12-07T07:03:47;5.40;99.90
43946;DHT22;29599;51.196;4.428;2022-12-07T07:06:13;5.30;99.90
43946;DHT22;29599;51.196;4.428;2022-12-07T07:08:38;5.30;99.90
43946;DHT22;29599;51.196;4.428;2022-12-07T07:11:04;5.20;99.90
43946;DHT22;29599;51.196;4.428;2022-12-07T07:13:30;5.20;99.90
43946;DHT22;29599;51.196;4.428;2022-12-07T07:15:55;5.20;99.90
43946;DHT22;29599;51.196;4.428;2022-12-07T07:18:21;5.20;99.90
43946;DHT22;29599;51.196;4.428;2022-12-07T07:20:47;5.20;99.90
43946;DHT22;29599;51.196;4.428;2022-12-07T07:23:12;5.20;99.90
43946;DHT22;29599;51.196;4.428;2022-12-07T07:25:38;5.20;99.90
43946;DHT22;29599;51.196;4.428;2022-12-07T07:28:04;5.20;99.90
43946;DHT22;29599;51.196;4.428;2022-12-07T07:30:29;5.20;99.90
43946;DHT22;29599;51.196;4.428;2022-12-07T07:32:58;5.20;99.90
43946;DHT22;29599;51.196;4.428;2022-12-07T07:35:25;5.20;99.90
43946;DHT22;29599;51.196;4.428;2022-12-07T07:37:50;5.20;99.90
43946;DHT22;29599;51.196;4.428;2022-12-07T07:40:16;5.20;99.90
43946;DHT22;29599;51.196;4.428;2022-12-07T07:42:41;5.20;99.90
43946;DHT22;29599;51.196;4.428;2022-12-07T07:45:07;5.20;99.90
43946;DHT22;29599;51.196;4.428;2022-12-07T07:47:32;5.20;99.90
43946;DHT22;29599;51.196;4.428;2022-12-07T07:49:58;5.10;99.90
43946;DHT22;29599;51.196;4.428;2022-12-07T07:52:23;5.10;99.90
43946;DHT22;29599;51.196;4.428;2022-12-07T07:54:49;5.10;99.90
43946;DHT22;29599;51.196;4.428;2022-12-07T07:57:15;5.10;99.90
43946;DHT22;29599;51.196;4.428;2022-12-07T07:59:41;5.10;99.90
43946;DHT22;29599;51.196;4.428;2022-12-07T08:02:08;5.10;99.90
43946;DHT22;29599;51.196;4.428;2022-12-07T08:04:34;5.10;99.90
43946;DHT22;29599;51.196;4.428;2022-12-07T08:07:01;5.20;99.90
43946;DHT22;29599;51.196;4.428;2022-12-07T08:09:26;5.20;99.90
43946;DHT22;29599;51.196;4.428;2022-12-07T08:11:51;5.20;99.90
43946;DHT22;29599;51.196;4.428;2022-12-07T08:14:17;5.30;99.90
43946;DHT22;29599;51.196;4.428;2022-12-07T08:16:42;5.30;99.90
43946;DHT22;29599;51.196;4.428;2022-12-07T08:19:08;5.30;99.90
43946;DHT22;29599;51.196;4.428;2022-12-07T08:21:33;5.40;99.90
43946;DHT22;29599;51.196;4.428;2022-12-07T08:23:59;5.40;99.90
43946;DHT22;29599;51.196;4.428;2022-12-07T08:26:24;5.50;99.90
43946;DHT22;29599;51.196;4.428;2022-12-07T08:28:50;5.50;99.90
43946;DHT22;29599;51.196;4.428;2022-12-07T08:31:16;5.60;99.90
43946;DHT22;29599;51.196;4.428;2022-12-07T08:33:44;5.60;99.90
43946;DHT22;29599;51.196;4.428;2022-12-07T08:36:10;5.60;99.90
43946;DHT22;29599;51.196;4.428;2022-12-07T08:38:37;5.50;99.90
43946;DHT22;29599;51.196;4.428;2022-12-07T08:41:03;5.60;99.90
43946;DHT22;29599;51.196;4.428;2022-12-07T08:43:29;5.50;99.90
43946;DHT22;29599;51.196;4.428;2022-12-07T08:46:16;5.50;99.90
43946;DHT22;29599;51.196;4.428;2022-12-07T08:49:04;5.50;99.90
43946;DHT22;29599;51.196;4.428;2022-12-07T08:51:28;5.60;99.90
43946;DHT22;29599;51.196;4.428;2022-12-07T08:53:54;5.60;99.90
43946;DHT22;29599;51.196;4.428;2022-12-07T08:56:21;5.60;99.90
43946;DHT22;29599;51.196;4.428;2022-12-07T08:58:46;5.60;99.90
43946;DHT22;29599;51.196;4.428;2022-12-07T09:01:12;5.70;99.90
43946;DHT22;29599;51.196;4.428;2022-12-07T09:03:37;5.70;99.90
43946;DHT22;29599;51.196;4.428;2022-12-07T09:06:03;5.70;99.90
43946;DHT22;29599;51.196;4.428;2022-12-07T09:08:33;5.80;99.90
43946;DHT22;29599;51.196;4.428;2022-12-07T09:10:59;5.90;99.90
43946;DHT22;29599;51.196;4.428;2022-12-07T09:13:24;5.90;99.90
43946;DHT22;29599;51.196;4.428;2022-12-07T09:15:51;5.90;99.90
43946;DHT22;29599;51.196;4.428;2022-12-07T09:18:16;5.90;99.90
43946;DHT22;29599;51.196;4.428;2022-12-07T09:20:42;5.90;99.90
43946;DHT22;29599;51.196;4.428;2022-12-07T09:23:07;5.90;99.90
43946;DHT22;29599;51.196;4.428;2022-12-07T09:25:33;5.90;99.90
43946;DHT22;29599;51.196;4.428;2022-12-07T09:27:58;5.90;99.90
43946;DHT22;29599;51.196;4.428;2022-12-07T09:30:24;5.90;99.90
43946;DHT22;29599;51.196;4.428;2022-12-07T09:32:52;5.90;99.90
43946;DHT22;29599;51.196;4.428;2022-12-07T09:35:18;6.00;99.90
43946;DHT22;29599;51.196;4.428;2022-12-07T09:37:43;6.10;99.90
43946;DHT22;29599;51.196;4.428;2022-12-07T09:40:09;6.20;99.90
43946;DHT22;29599;51.196;4.428;2022-12-07T09:42:38;6.30;99.90
43946;DHT22;29599;51.196;4.428;2022-12-07T09:45:30;6.40;99.90
43946;DHT22;29599;51.196;4.428;2022-12-07T09:47:56;6.30;99.90
43946;DHT22;29599;51.196;4.428;2022-12-07T09:50:27;6.30;99.90
43946;DHT22;29599;51.196;4.428;2022-12-07T09:52:53;6.30;99.90
43946;DHT22;29599;51.196;4.428;2022-12-07T09:55:30;6.30;99.90
43946;DHT22;29599;51.196;4.428;2022-12-07T09:57:56;6.30;99.90
43946;DHT22;29599;51.196;4.428;2022-12-07T10:00:22;6.20;99.90
43946;DHT22;29599;51.196;4.428;2022-12-07T10:02:53;6.20;99.90
43946;DHT22;29599;51.196;4.428;2022-12-07T10:05:25;6.20;99.90
43946;DHT22;29599;51.196;4.428;2022-12-07T10:07:52;6.20;99.90
43946;DHT22;29599;51.196;4.428;2022-12-07T10:10:25;6.30;99.90
43946;DHT22;29599;51.196;4.428;2022-12-07T10:15:19;6.30;99.90
43946;DHT22;29599;51.196;4.428;2022-12-07T10:17:49;6.40;99.90
43946;DHT22;29599;51.196;4.428;2022-12-07T10:20:16;6.50;99.90
43946;DHT22;29599;51.196;4.428;2022-12-07T10:23:02;6.50;99.90
43946;DHT22;29599;51.196;4.428;2022-12-07T10:25:29;6.50;99.90
43946;DHT22;29599;51.196;4.428;2022-12-07T10:30:29;6.60;99.90
43946;DHT22;29599;51.196;4.428;2022-12-07T10:32:55;6.60;99.90
43946;DHT22;29599;51.196;4.428;2022-12-07T10:35:26;6.60;99.90
43946;DHT22;29599;51.196;4.428;2022-12-07T10:37:52;6.60;99.90
43946;DHT22;29599;51.196;4.428;2022-12-07T10:40:35;6.60;99.90
43946;DHT22;29599;51.196;4.428;2022-12-07T11:00:29;6.60;99.90
43946;DHT22;29599;51.196;4.428;2022-12-07T11:03:09;6.60;99.90
43946;DHT22;29599;51.196;4.428;2022-12-07T11:05:40;6.60;99.90
43946;DHT22;29599;51.196;4.428;2022-12-07T11:08:18;6.70;99.90
43946;DHT22;29599;51.196;4.428;2022-12-07T11:10:49;6.70;99.90
43946;DHT22;29599;51.196;4.428;2022-12-07T11:13:22;6.70;99.90
43946;DHT22;29599;51.196;4.428;2022-12-07T11:15:53;6.80;99.90
43946;DHT22;29599;51.196;4.428;2022-12-07T11:25:52;6.80;99.90
43946;DHT22;29599;51.196;4.428;2022-12-07T11:33:19;6.90;99.90
43946;DHT22;29599;51.196;4.428;2022-12-07T11:38:35;6.90;99.90
43946;DHT22;29599;51.196;4.428;2022-12-07T11:41:04;6.90;99.90
43946;DHT22;29599;51.196;4.428;2022-12-07T11:43:50;6.90;99.90
43946;DHT22;29599;51.196;4.428;2022-12-07T11:46:17;6.90;99.90
43946;DHT22;29599;51.196;4.428;2022-12-07T11:48:45;6.90;99.90
43946;DHT22;29599;51.196;4.428;2022-12-07T11:51:12;6.90;99.90
43946;DHT22;29599;51.196;4.428;2022-12-07T11:53:38;6.90;99.90
43946;DHT22;29599;51.196;4.428;2022-12-07T11:56:12;6.90;99.90
43946;DHT22;29599;51.196;4.428;2022-12-07T11:58:41;6.90;99.90
43946;DHT22;29599;51.196;4.428;2022-12-07T12:01:13;7.00;99.90
43946;DHT22;29599;51.196;4.428;2022-12-07T12:03:42;7.00;99.90
43946;DHT22;29599;51.196;4.428;2022-12-07T12:06:09;7.00;99.90
43946;DHT22;29599;51.196;4.428;2022-12-07T12:08:42;7.00;99.90
43946;DHT22;29599;51.196;4.428;2022-12-07T12:19:11;6.90;99.90
43946;DHT22;29599;51.196;4.428;2022-12-07T12:21:40;6.90;99.90
43946;DHT22;29599;51.196;4.428;2022-12-07T12:24:10;6.90;99.90
43946;DHT22;29599;51.196;4.428;2022-12-07T12:26:37;6.80;99.90
43946;DHT22;29599;51.196;4.428;2022-12-07T12:29:05;6.80;99.90
43946;DHT22;29599;51.196;4.428;2022-12-07T12:31:34;6.80;99.90
43946;DHT22;29599;51.196;4.428;2022-12-07T12:34:29;6.80;99.90
43946;DHT22;29599;51.196;4.428;2022-12-07T12:36:55;6.80;99.90
43946;DHT22;29599;51.196;4.428;2022-12-07T12:39:21;6.80;99.90
43946;DHT22;29599;51.196;4.428;2022-12-07T12:51:58;6.70;99.90
43946;DHT22;29599;51.196;4.428;2022-12-07T12:54:24;6.80;99.90
43946;DHT22;29599;51.196;4.428;2022-12-07T12:59:19;6.90;99.90
43946;DHT22;29599;51.196;4.428;2022-12-07T13:01:54;7.00;99.90
43946;DHT22;29599;51.196;4.428;2022-12-07T13:10:01;7.00;99.90
43946;DHT22;29599;51.196;4.428;2022-12-07T13:12:30;7.00;99.90
43946;DHT22;29599;51.196;4.428;2022-12-07T13:14:57;7.00;99.90
43946;DHT22;29599;51.196;4.428;2022-12-07T13:20:01;7.00;99.90
43946;DHT22;29599;51.196;4.428;2022-12-07T13:22:34;7.00;99.90
43946;DHT22;29599;51.196;4.428;2022-12-07T13:25:18;7.00;99.90
43946;DHT22;29599;51.196;4.428;2022-12-07T13:27:47;7.00;99.90
43946;DHT22;29599;51.196;4.428;2022-12-07T13:30:20;7.00;99.90
43946;DHT22;29599;51.196;4.428;2022-12-07T13:32:56;7.00;99.90
43946;DHT22;29599;51.196;4.428;2022-12-07T13:37:57;6.80;99.90
43946;DHT22;29599;51.196;4.428;2022-12-07T13:40:23;6.70;99.90
43946;DHT22;29599;51.196;4.428;2022-12-07T13:42:56;6.70;99.90
43946;DHT22;29599;51.196;4.428;2022-12-07T13:48:10;6.70;99.90
43946;DHT22;29599;51.196;4.428;2022-12-07T13:50:39;6.70;99.90
43946;DHT22;29599;51.196;4.428;2022-12-07T13:53:07;6.70;99.90
43946;DHT22;29599;51.196;4.428;2022-12-07T13:55:36;6.70;99.90
43946;DHT22;29599;51.196;4.428;2022-12-07T13:58:09;6.70;99.90
43946;DHT22;29599;51.196;4.428;2022-12-07T14:00:35;6.70;99.90
43946;DHT22;29599;51.196;4.428;2022-12-07T14:03:02;6.60;99.90
43946;DHT22;29599;51.196;4.428;2022-12-07T14:05:29;6.60;99.90
43946;DHT22;29599;51.196;4.428;2022-12-07T14:08:41;6.60;99.90
43946;DHT22;29599;51.196;4.428;2022-12-07T14:10:52;6.50;99.90
43946;DHT22;29599;51.196;4.428;2022-12-07T14:13:38;6.50;99.90
43946;DHT22;29599;51.196;4.428;2022-12-07T14:18:53;6.60;99.90
43946;DHT22;29599;51.196;4.428;2022-12-07T14:21:23;6.60;99.90
43946;DHT22;29599;51.196;4.428;2022-12-07T14:24:02;6.50;99.90
43946;DHT22;29599;51.196;4.428;2022-12-07T14:26:30;6.50;99.90
43946;DHT22;29599;51.196;4.428;2022-12-07T14:29:18;6.60;99.90
43946;DHT22;29599;51.196;4.428;2022-12-07T14:31:43;6.50;99.90
43946;DHT22;29599;51.196;4.428;2022-12-07T14:34:12;6.50;99.90
43946;DHT22;29599;51.196;4.428;2022-12-07T14:36:38;6.50;99.90
43946;DHT22;29599;51.196;4.428;2022-12-07T14:39:03;6.50;99.90
43946;DHT22;29599;51.196;4.428;2022-12-07T14:41:32;6.50;99.90
43946;DHT22;29599;51.196;4.428;2022-12-07T14:44:15;6.50;99.90
43946;DHT22;29599;51.196;4.428;2022-12-07T14:46:41;6.40;99.90
43946;DHT22;29599;51.196;4.428;2022-12-07T14:49:06;6.40;99.90
43946;DHT22;29599;51.196;4.428;2022-12-07T14:51:36;6.50;99.90
43946;DHT22;29599;51.196;4.428;2022-12-07T14:54:02;6.50;99.90
43946;DHT22;29599;51.196;4.428;2022-12-07T14:56:29;6.40;99.90
43946;DHT22;29599;51.196;4.428;2022-12-07T14:58:54;6.40;99.90
43946;DHT22;29599;51.196;4.428;2022-12-07T15:01:20;6.40;99.90
43946;DHT22;29599;51.196;4.428;2022-12-07T15:03:45;6.40;99.90
43946;DHT22;29599;51.196;4.428;2022-12-07T15:06:13;6.40;99.90
43946;DHT22;29599;51.196;4.428;2022-12-07T15:08:39;6.40;99.90
43946;DHT22;29599;51.196;4.428;2022-12-07T15:11:04;6.40;99.90
43946;DHT22;29599;51.196;4.428;2022-12-07T15:13:30;6.30;99.90
43946;DHT22;29599;51.196;4.428;2022-12-07T15:16:16;6.30;99.90
43946;DHT22;29599;51.196;4.428;2022-12-07T15:18:43;6.30;99.90
43946;DHT22;29599;51.196;4.428;2022-12-07T15:21:13;6.30;99.90
43946;DHT22;29599;51.196;4.428;2022-12-07T15:23:39;6.30;99.90
43946;DHT22;29599;51.196;4.428;2022-12-07T15:26:04;6.20;99.90
43946;DHT22;29599;51.196;4.428;2022-12-07T15:28:30;6.20;99.90
43946;DHT22;29599;51.196;4.428;2022-12-07T15:30:55;6.20;99.90
43946;DHT22;29599;51.196;4.428;2022-12-07T15:33:21;6.20;99.90
43946;DHT22;29599;51.196;4.428;2022-12-07T15:35:46;6.20;99.90
43946;DHT22;29599;51.196;4.428;2022-12-07T15:38:12;6.20;99.90
43946;DHT22;29599;51.196;4.428;2022-12-07T15:40:37;6.20;99.90
43946;DHT22;29599;51.196;4.428;2022-12-07T15:43:03;6.20;99.90
43946;DHT22;29599;51.196;4.428;2022-12-07T15:45:29;6.20;99.90
43946;DHT22;29599;51.196;4.428;2022-12-07T15:47:54;6.20;99.90
43946;DHT22;29599;51.196;4.428;2022-12-07T15:50:22;6.20;99.90
43946;DHT22;29599;51.196;4.428;2022-12-07T15:52:48;6.20;99.90
43946;DHT22;29599;51.196;4.428;2022-12-07T15:55:14;6.20;99.90
43946;DHT22;29599;51.196;4.428;2022-12-07T15:57:40;6.20;99.90
43946;DHT22;29599;51.196;4.428;2022-12-07T16:00:06;6.20;99.90
43946;DHT22;29599;51.196;4.428;2022-12-07T16:02:32;6.20;99.90
43946;DHT22;29599;51.196;4.428;2022-12-07T16:04:58;6.20;99.90
43946;DHT22;29599;51.196;4.428;2022-12-07T16:07:23;6.20;99.90
43946;DHT22;29599;51.196;4.428;2022-12-07T16:09:49;6.20;99.90
43946;DHT22;29599;51.196;4.428;2022-12-07T16:12:15;6.20;99.90
43946;DHT22;29599;51.196;4.428;2022-12-07T16:14:40;6.10;99.90
43946;DHT22;29599;51.196;4.428;2022-12-07T16:17:07;6.10;99.90
43946;DHT22;29599;51.196;4.428;2022-12-07T16:19:33;6.20;99.90
43946;DHT22;29599;51.196;4.428;2022-12-07T16:21:58;6.20;99.90
43946;DHT22;29599;51.196;4.428;2022-12-07T16:24:24;6.20;99.90
43946;DHT22;29599;51.196;4.428;2022-12-07T16:26:50;6.20;99.90
43946;DHT22;29599;51.196;4.428;2022-12-07T16:29:16;6.20;99.90
43946;DHT22;29599;51.196;4.428;2022-12-07T16:31:42;6.20;99.90
43946;DHT22;29599;51.196;4.428;2022-12-07T16:34:08;6.20;99.90
43946;DHT22;29599;51.196;4.428;2022-12-07T16:36:34;6.20;99.90
43946;DHT22;29599;51.196;4.428;2022-12-07T16:38:59;6.20;99.90
43946;DHT22;29599;51.196;4.428;2022-12-07T16:41:25;6.10;99.90
43946;DHT22;29599;51.196;4.428;2022-12-07T16:43:51;6.10;99.90
43946;DHT22;29599;51.196;4.428;2022-12-07T16:46:16;6.10;99.90
43946;DHT22;29599;51.196;4.428;2022-12-07T16:48:42;6.10;99.90
43946;DHT22;29599;51.196;4.428;2022-12-07T16:51:09;6.10;99.90
43946;DHT22;29599;51.196;4.428;2022-12-07T16:53:36;6.10;99.90
43946;DHT22;29599;51.196;4.428;2022-12-07T16:56:02;6.10;99.90
43946;DHT22;29599;51.196;4.428;2022-12-07T16:58:27;6.10;99.90
43946;DHT22;29599;51.196;4.428;2022-12-07T17:00:53;6.10;99.90
43946;DHT22;29599;51.196;4.428;2022-12-07T17:03:18;6.10;99.90
43946;DHT22;29599;51.196;4.428;2022-12-07T17:05:44;6.10;99.90
43946;DHT22;29599;51.196;4.428;2022-12-07T17:08:10;6.10;99.90
43946;DHT22;29599;51.196;4.428;2022-12-07T17:10:38;6.10;99.90
43946;DHT22;29599;51.196;4.428;2022-12-07T17:13:04;6.10;99.90
43946;DHT22;29599;51.196;4.428;2022-12-07T17:16:02;6.10;99.90
43946;DHT22;29599;51.196;4.428;2022-12-07T17:18:32;6.20;99.90
43946;DHT22;29599;51.196;4.428;2022-12-07T17:21:02;6.10;99.90
43946;DHT22;29599;51.196;4.428;2022-12-07T17:23:28;6.10;99.90
43946;DHT22;29599;51.196;4.428;2022-12-07T17:25:55;6.10;99.90
43946;DHT22;29599;51.196;4.428;2022-12-07T17:28:20;6.00;99.90
43946;DHT22;29599;51.196;4.428;2022-12-07T17:30:46;6.10;99.90
43946;DHT22;29599;51.196;4.428;2022-12-07T17:33:12;6.10;99.90
43946;DHT22;29599;51.196;4.428;2022-12-07T17:35:38;6.00;99.90